Denis Mikheev

Olheiro-Chefe - CSKA Moscow
4 Jun 2028
Domingo
Processo

Personalidade

Adaptabilidade (19) Ambição (13) Controvérsia (5) Lealdade (17) Pressão (13) Profissionalismo (18) Espírito Esportivo (10) Temperamento (8)

Perfil

Estilo de Treinamento Democrático
Licença Nacional B
Determinação 9
Gestão de Pessoas 5
Motivação 13
Disciplina 5
Satisfação no Trabalho
100%
Fadiga
0%
Função Olheiro-Chefe
Salário 31.6K p/s
Contrato 14.03.2030

Desempenho

Comportamento Bom
Eficácia do Treinamento
56%
Desenvolvimento do Jogador
75%
Prevenção de Lesões
65%
Implementação Tática
60%

Monitorando agora

54
Jogador Clube Status Habilidade Confiança Observado Última observação Último voto
Harrison Burrows Sheffield United Ativo 127 / 134 40% 1 21.02.2028 -
Edoardo Bove Watford Ativo 138 / 138 40% 1 21.02.2028 -
Tristan Crama Chesterfield Ativo 140 / 131 40% 1 18.02.2028 -
Luke McNally Bristol City Ativo 145 / 136 40% 1 18.02.2028 -
Reda Khadra Zenit Ativo 129 / 130 66% 1 14.02.2028 Aprovar
Luiz Henrique Barcelona Ativo 142 / 143 70% 1 25.01.2028 Aprovar
Rahid Guseynov Universitario Ativo 113 / 114 66% 1 25.01.2028 Aprovar
German Onugkha Dinamo Moscow Ativo 119 / 119 66% 1 25.01.2028 Aprovar
Felipe Augusto Real Sociedad Ativo 131 / 135 66% 1 25.01.2028 Aprovar
Gustavo Mantuan Zenit Perdido 151 / 134 40% 1 25.01.2028 -
Christian Krasnodar Ativo 127 / 137 40% 2 07.09.2027 Mais informações
Diego Luna Real Salt Lake Ativo 127 / 131 40% 1 07.09.2027 Mais informações
Veldin Hodža Rubin Ativo 119 / 128 40% 1 07.09.2027 Mais informações
Nicolás Paz San Martín SJ Ativo 114 / 121 40% 2 06.09.2027 -
Igor Diveev Zenit Ativo 120 / 135 40% 1 03.09.2027 -
Jesús Vázquez Valencia Ativo 137 / 139 40% 1 02.09.2027 -
Nikita Krivtsov Krasnodar Ativo 119 / 133 40% 1 01.09.2027 -
Victor Melekhin Rostov Ativo 118 / 127 40% 1 01.09.2027 -
Merlin Röhl Everton Ativo 142 / 147 40% 1 31.08.2027 -
Diego Costa Rubin Ativo 144 / 139 40% 1 27.08.2027 -
Arsen Adamov Akhmat Grozny Ativo 117 / 119 40% 1 26.08.2027 -
Alexandr Siljanov Lokomotiv Moscow Ativo 134 / 130 40% 1 24.08.2027 -
Elias Baum Eintracht Frankfurt Ativo 134 / 136 40% 1 21.08.2027 -
Yannik Engelhardt SC Freiburg Ativo 133 / 144 40% 1 21.08.2027 -
Lukas Engel Real Salt Lake Ativo 113 / 125 40% 1 20.08.2027 -
Saël Kumbedi VfL Wolfsburg Ativo 141 / 137 40% 2 18.08.2027 -
Nadir Zortea Bologna Ativo 132 / 144 40% 2 17.08.2027 -
Chema Andrés VfB Stuttgart Ativo 139 / 147 40% 1 17.08.2027 -
Konstantin Tyukavin Lokomotiv Moscow Ativo 150 / 141 40% 1 14.08.2027 -
Javi Rueda Celta Ativo 138 / 136 40% 2 13.08.2027 -
Han-Noah Massengo FC Augsburg Ativo 142 / 142 40% 1 11.08.2027 -
Christ Inao Oulaï Fiorentina Ativo 135 / 141 40% 1 10.08.2027 -
Brodie Spencer Oxford United Ativo 137 / 131 40% 2 08.08.2027 -
Giovane Napoli Ativo 127 / 143 40% 2 06.08.2027 -
Alex Bangura Middlesbrough Ativo 126 / 129 40% 2 04.08.2027 -
Imrân Louza Watford Ativo 130 / 130 40% 2 31.07.2027 -
Matteo Ruggeri Aston Villa Ativo 165 / 150 40% 2 28.07.2027 -
Viti Rozada Las Palmas Ativo 121 / 124 40% 3 26.07.2027 -
Ransford Königsdörffer Mainz 05 Ativo 141 / 137 40% 1 23.07.2027 -
Morgan Whittaker Middlesbrough Ativo 147 / 137 40% 1 20.07.2027 -
Mads Roerslev Southampton Ativo 141 / 125 40% 1 17.07.2027 -
Ollie Scarles West Ham United Ativo 133 / 135 40% 1 16.07.2027 -
Ilias Akhomach Villarreal Ativo 154 / 150 40% 1 15.07.2027 -
Rıdvan Yılmaz Besiktas Ativo 128 / 121 40% 1 12.07.2027 -
Alessandro Zanoli Udinese Ativo 137 / 134 40% 1 08.07.2027 -
Oscar Fraulo Derby County Ativo 130 / 128 40% 3 07.07.2027 -
Ryan Giles Hull City Ativo 124 / 120 40% 1 03.07.2027 -
Wendel Zenit Ativo 140 / 148 40% 3 02.07.2027 -
Batxi Krasnodar Ativo 124 / 132 40% 1 30.06.2027 -
Alireza Shojaei Padideh Ativo 159 / 133 40% 2 24.06.2027 -
Ciprian Dragusin Krasnodar Ativo 132 / 138 40% 2 24.06.2027 -
Jon Ander Olasagasti Levante Ativo 116 / 128 40% 1 24.06.2027 -
Rogério Hamburger SV Ativo 127 / 134 40% 1 17.06.2027 -
Maxim Glushenkov Zenit Ativo 139 / 144 40% 1 01.08.2026 -